Time;durP1;ratioP1;P1;durP2;ratioP2;P2;SDS_P1;SDS_P2;PMS_P1;PMS_P2;Temp;Humidity;BMP_temperature;BMP_pressure;BME280_temperature;BME280_humidity;BME280_pressure;Samples;Min_cycle;Max_cycle;Signal;HPM_P1;HPM_P2
2022/08/05 00:01:23;;;;;;;2.20;1.50;;;26.80;48.60;;;;;;5045539;28;20048;-63
2022/08/05 00:03:54;;;;;;;2.10;1.90;;;26.80;48.60;;;;;;5045692;28;20037;-62
2022/08/05 00:06:23;;;;;;;2.00;1.83;;;26.80;48.60;;;;;;5045229;28;20098;-63
2022/08/05 00:08:59;;;;;;;1.98;1.88;;;26.80;48.60;;;;;;5044385;28;20049;-63
2022/08/05 00:11:27;;;;;;;2.15;1.95;;;26.80;48.60;;;;;;5043756;28;20071;-62
2022/08/05 00:14:02;;;;;;;2.08;1.88;;;26.80;48.70;;;;;;5043194;28;20049;-62
2022/08/05 00:16:43;;;;;;;1.73;1.63;;;26.70;48.60;;;;;;5045504;28;20041;-63
2022/08/05 00:19:20;;;;;;;1.92;1.83;;;26.80;48.80;;;;;;5042955;28;20099;-62
2022/08/05 00:21:49;;;;;;;1.40;1.40;;;26.80;48.80;;;;;;5044193;28;20124;-63
2022/08/05 00:24:16;;;;;;;2.03;1.90;;;26.70;48.70;;;;;;5044955;28;20044;-62
2022/08/05 00:26:51;;;;;;;3.00;1.77;;;26.70;48.80;;;;;;5044409;28;20045;-63
2022/08/05 00:29:20;;;;;;;1.80;1.70;;;26.70;48.80;;;;;;5045309;28;20053;-63
2022/08/05 00:31:48;;;;;;;1.70;1.60;;;26.70;48.80;;;;;;5045182;28;20056;-62
2022/08/05 00:34:36;;;;;;;1.95;1.85;;;26.70;48.80;;;;;;5043846;28;20132;-62
2022/08/05 00:37:23;;;;;;;1.60;1.60;;;26.70;48.80;;;;;;5045557;28;20467;-62
2022/08/05 00:39:50;;;;;;;1.42;1.40;;;26.70;49.40;;;;;;5043921;28;20051;-62
2022/08/05 00:42:37;;;;;;;1.65;1.60;;;26.60;48.80;;;;;;5047951;28;20087;-62
2022/08/05 00:45:06;;;;;;;1.77;1.67;;;26.70;48.90;;;;;;5044693;28;20049;-62
2022/08/05 00:47:39;;;;;;;1.73;1.63;;;26.60;48.90;;;;;;5049862;28;20060;-62
2022/08/05 00:50:23;;;;;;;2.20;2.10;;;26.60;48.90;;;;;;5049057;28;20448;-63
2022/08/05 00:52:52;;;;;;;2.00;1.90;;;26.60;48.90;;;;;;5047813;28;20051;-62
2022/08/05 00:55:21;;;;;;;2.22;2.13;;;26.70;49.00;;;;;;5048863;28;20065;-63
2022/08/05 00:58:00;;;;;;;2.00;1.90;;;26.60;49.00;;;;;;5048859;28;20080;-63
2022/08/05 01:00:30;;;;;;;1.60;1.52;;;26.60;49.00;;;;;;5047969;28;20041;-62
2022/08/05 01:02:59;;;;;;;1.90;1.80;;;26.60;49.10;;;;;;5048716;28;20045;-62
2022/08/05 01:05:27;;;;;;;1.50;1.50;;;26.60;49.10;;;;;;5049110;28;20081;-62
2022/08/05 01:07:54;;;;;;;1.80;1.70;;;26.60;49.10;;;;;;5048601;28;20037;-62
2022/08/05 01:10:58;;;;;;;1.85;1.75;;;26.60;49.10;;;;;;5048535;28;20315;-62
2022/08/05 01:13:58;;;;;;;1.85;1.75;;;26.60;49.10;;;;;;5048660;28;20048;-63
2022/08/05 01:16:46;;;;;;;1.58;1.58;;;26.60;49.20;;;;;;5044501;28;20076;-62
2022/08/05 01:19:44;;;;;;;1.80;1.70;;;26.60;49.20;;;;;;5046634;28;20175;-62
2022/08/05 01:22:56;;;;;;;1.85;1.75;;;26.50;49.10;;;;;;5047756;28;20148;-62
2022/08/05 01:25:52;;;;;;;2.10;2.00;;;26.60;49.20;;;;;;5048314;28;20049;-62
2022/08/05 01:28:31;;;;;;;2.40;2.20;;;26.50;49.20;;;;;;5048441;28;20053;-64
2022/08/05 01:31:25;;;;;;;1.85;1.75;;;26.60;49.20;;;;;;5047881;28;20049;-62
2022/08/05 01:34:09;;;;;;;1.90;1.80;;;26.60;49.20;;;;;;5048735;28;20057;-63
2022/08/05 01:36:42;;;;;;;1.98;1.88;;;26.50;49.20;;;;;;5048404;28;20244;-62
2022/08/05 01:39:15;;;;;;;1.92;1.83;;;26.50;49.20;;;;;;5047609;28;20548;-63
2022/08/05 01:42:04;;;;;;;1.73;1.63;;;26.50;49.20;;;;;;5048304;28;20045;-62
2022/08/05 01:44:33;;;;;;;1.83;1.73;;;26.50;49.20;;;;;;5047863;28;20057;-63
2022/08/05 01:47:02;;;;;;;2.20;1.90;;;26.50;49.30;;;;;;5043770;28;20049;-63
2022/08/05 01:49:33;;;;;;;2.00;1.90;;;26.50;49.30;;;;;;5047778;28;20095;-63
2022/08/05 01:52:22;;;;;;;1.98;1.88;;;26.50;49.30;;;;;;5048280;28;20413;-62
2022/08/05 01:54:54;;;;;;;1.73;1.63;;;26.50;49.30;;;;;;5047869;28;20106;-62
2022/08/05 01:57:31;;;;;;;2.15;2.05;;;26.50;49.30;;;;;;5046056;28;20048;-62
2022/08/05 02:00:19;;;;;;;1.65;1.60;;;26.50;49.40;;;;;;5047539;28;20063;-62
2022/08/05 02:03:00;;;;;;;2.10;1.92;;;26.50;49.30;;;;;;5048027;28;20040;-62
2022/08/05 02:05:32;;;;;;;1.85;1.75;;;26.50;49.40;;;;;;5048079;28;20361;-62
2022/08/05 02:08:03;;;;;;;1.95;1.85;;;26.50;49.40;;;;;;5047610;28;20080;-62
2022/08/05 02:10:38;;;;;;;1.90;1.80;;;26.50;49.90;;;;;;5047146;28;20098;-63
2022/08/05 02:13:15;;;;;;;1.77;1.67;;;26.50;49.40;;;;;;5047641;28;20340;-62
2022/08/05 02:15:46;;;;;;;1.90;1.80;;;26.50;49.40;;;;;;5047409;28;20237;-62
2022/08/05 02:18:27;;;;;;;1.90;1.80;;;26.50;49.40;;;;;;5043980;28;20053;-62
2022/08/05 02:21:24;;;;;;;1.77;1.67;;;26.50;49.50;;;;;;5046422;28;20045;-62
2022/08/05 02:23:55;;;;;;;2.15;2.00;;;26.40;49.40;;;;;;5046565;28;20285;-62
2022/08/05 02:26:42;;;;;;;2.03;1.92;;;26.50;50.00;;;;;;5046034;28;20102;-62
2022/08/05 02:29:22;;;;;;;1.90;1.80;;;26.40;49.40;;;;;;5032664;28;20045;-62
2022/08/05 02:32:12;;;;;;;1.98;1.88;;;26.40;49.50;;;;;;5045686;28;20065;-62
2022/08/05 02:34:51;;;;;;;1.90;1.80;;;26.40;49.50;;;;;;5047499;28;20049;-62
2022/08/05 02:37:21;;;;;;;2.03;1.92;;;26.40;49.60;;;;;;5045685;28;20052;-62
2022/08/05 02:39:52;;;;;;;2.33;2.13;;;26.40;49.60;;;;;;5045627;28;20049;-62
2022/08/05 02:42:20;;;;;;;2.20;2.10;;;26.40;49.60;;;;;;5047828;28;20067;-62
2022/08/05 02:44:59;;;;;;;1.95;1.85;;;26.40;49.60;;;;;;5046201;28;20037;-62
2022/08/05 02:47:29;;;;;;;1.88;1.77;;;26.40;49.70;;;;;;5045772;28;20452;-62
2022/08/05 02:50:17;;;;;;;2.45;2.28;;;26.40;49.70;;;;;;5041717;28;20132;-62
2022/08/05 02:52:45;;;;;;;1.90;1.80;;;26.40;49.70;;;;;;5047216;28;20053;-63
2022/08/05 02:55:13;;;;;;;1.50;1.50;;;26.40;49.80;;;;;;5046986;28;20044;-62
2022/08/05 02:57:44;;;;;;;2.47;2.25;;;26.40;49.80;;;;;;5046654;28;20057;-63
2022/08/05 03:00:33;;;;;;;2.13;2.03;;;26.40;49.80;;;;;;5046780;28;20132;-62
2022/08/05 03:03:02;;;;;;;2.03;1.92;;;26.40;49.90;;;;;;5046151;28;20293;-62
2022/08/05 03:05:38;;;;;;;1.95;1.85;;;26.40;50.30;;;;;;5045895;28;20052;-62
2022/08/05 03:08:25;;;;;;;2.00;1.90;;;26.40;50.00;;;;;;5045224;28;20085;-62
2022/08/05 03:10:56;;;;;;;1.90;1.80;;;26.40;50.10;;;;;;5046278;28;20060;-62
2022/08/05 03:13:43;;;;;;;2.17;2.08;;;26.40;50.20;;;;;;5046925;28;20041;-62
2022/08/05 03:16:28;;;;;;;1.88;1.77;;;26.40;50.70;;;;;;5046380;28;20053;-62
2022/08/05 03:18:58;;;;;;;2.35;2.15;;;26.40;50.30;;;;;;5046896;28;20083;-62
2022/08/05 03:21:26;;;;;;;2.13;2.03;;;26.40;50.20;;;;;;5040724;28;20132;-62
2022/08/05 03:23:59;;;;;;;2.30;2.10;;;26.30;50.20;;;;;;5029679;28;20084;-62
2022/08/05 03:26:28;;;;;;;1.83;1.73;;;26.40;50.20;;;;;;5045702;28;20257;-62
2022/08/05 03:28:58;;;;;;;;;;;26.30;50.10;;;;;;5046502;28;20052;-62
2022/08/05 03:31:26;;;;;;;2.22;2.13;;;26.30;50.20;;;;;;5045951;28;19927;-62
2022/08/05 03:34:13;;;;;;;1.70;1.60;;;26.40;50.20;;;;;;5045330;28;20068;-61
2022/08/05 03:36:40;;;;;;;2.30;2.20;;;26.40;50.20;;;;;;5046456;28;20053;-62
2022/08/05 03:39:08;;;;;;;2.40;1.77;;;26.30;50.10;;;;;;5045853;28;20148;-62
2022/08/05 03:41:52;;;;;;;2.08;1.92;;;26.40;50.20;;;;;;5046140;28;20137;-62
2022/08/05 03:44:23;;;;;;;2.22;2.10;;;26.40;50.30;;;;;;5043355;28;20106;-62
2022/08/05 03:46:50;;;;;;;1.77;1.67;;;26.40;50.30;;;;;;5025640;28;20038;-62
2022/08/05 03:49:18;;;;;;;2.00;1.90;;;26.40;50.30;;;;;;5026419;28;20107;-62
2022/08/05 03:51:59;;;;;;;2.05;1.95;;;26.40;50.30;;;;;;5025124;28;20395;-62
2022/08/05 03:54:56;;;;;;;1.95;1.85;;;26.40;50.30;;;;;;5022214;28;20522;-62
2022/08/05 03:57:44;;;;;;;2.20;2.10;;;26.30;50.20;;;;;;5033808;28;20149;-62
2022/08/05 04:00:14;;;;;;;2.22;2.03;;;26.30;50.20;;;;;;5030112;28;20052;-62
2022/08/05 04:02:48;;;;;;;2.00;1.90;;;26.40;50.30;;;;;;5046345;28;20069;-62
2022/08/05 04:05:28;;;;;;;2.28;2.10;;;26.40;50.30;;;;;;5045412;28;20056;-62
2022/08/05 04:08:09;;;;;;;2.08;1.98;;;26.40;50.30;;;;;;5045840;28;20068;-62
2022/08/05 04:10:43;;;;;;;2.28;2.08;;;26.40;50.20;;;;;;5043999;28;20489;-62
2022/08/05 04:13:11;;;;;;;1.80;1.70;;;26.40;50.20;;;;;;5045469;28;20045;-62
2022/08/05 04:15:39;;;;;;;2.47;2.28;;;26.40;50.20;;;;;;5044085;28;20144;-62
2022/08/05 04:18:27;;;;;;;2.00;1.90;;;26.40;50.20;;;;;;5045401;28;20108;-62
2022/08/05 04:20:57;;;;;;;2.53;1.95;;;26.40;50.20;;;;;;5045242;28;20052;-62
2022/08/05 04:23:26;;;;;;;4.65;2.00;;;26.50;50.20;;;;;;5045047;28;20660;-62
2022/08/05 04:26:14;;;;;;;2.47;2.28;;;26.50;50.20;;;;;;5040838;28;20148;-62
2022/08/05 04:28:43;;;;;;;2.85;2.50;;;26.50;50.20;;;;;;5044392;28;20045;-62
2022/08/05 04:31:18;;;;;;;2.60;1.92;;;26.50;50.10;;;;;;5045572;28;20095;-62
2022/08/05 04:33:45;;;;;;;1.95;1.80;;;26.50;50.10;;;;;;5044631;28;20041;-62
2022/08/05 04:36:32;;;;;;;2.38;2.28;;;26.50;50.00;;;;;;5045482;28;20052;-62
2022/08/05 04:39:19;;;;;;;2.20;2.10;;;26.50;50.00;;;;;;5044619;28;20049;-62
2022/08/05 04:41:47;;;;;;;2.10;2.00;;;26.50;49.90;;;;;;5043023;28;20063;-62
2022/08/05 04:44:17;;;;;;;2.40;2.20;;;26.60;49.90;;;;;;5044594;28;20125;-62
2022/08/05 04:46:57;;;;;;;2.42;2.28;;;26.60;49.90;;;;;;5044649;28;20439;-62
2022/08/05 04:49:26;;;;;;;2.30;2.17;;;26.60;49.80;;;;;;5045223;28;20041;-62
2022/08/05 04:52:13;;;;;;;2.30;2.15;;;26.60;49.80;;;;;;5044932;28;20047;-62
2022/08/05 04:54:41;;;;;;;2.72;2.53;;;26.60;49.70;;;;;;5044235;28;20361;-62
2022/08/05 04:57:08;;;;;;;2.30;2.10;;;26.70;49.70;;;;;;5036453;28;20076;-62
2022/08/05 04:59:35;;;;;;;2.20;2.08;;;26.70;49.70;;;;;;5044021;28;20080;-62
2022/08/05 05:02:05;;;;;;;3.03;2.17;;;26.70;49.60;;;;;;5044230;28;20045;-62
2022/08/05 05:04:52;;;;;;;2.70;1.85;;;26.70;49.50;;;;;;5044531;28;20537;-62
2022/08/05 05:07:29;;;;;;;2.70;2.50;;;26.70;49.50;;;;;;5045589;28;20103;-62
2022/08/05 05:09:58;;;;;;;;;;;26.70;49.40;;;;;;5044419;28;20049;-62
2022/08/05 05:12:28;;;;;;;3.55;2.20;;;26.70;49.50;;;;;;5044334;28;19963;-62
2022/08/05 05:14:56;;;;;;;2.83;2.63;;;26.60;50.10;;;;;;5044916;28;20120;-62
2022/08/05 05:17:23;;;;;;;2.80;2.47;;;26.50;49.80;;;;;;5044152;28;20076;-63
2022/08/05 05:20:12;;;;;;;3.58;2.20;;;26.30;50.20;;;;;;5035193;28;20052;-63
2022/08/05 05:22:40;;;;;;;3.10;2.80;;;26.00;50.50;;;;;;5041841;28;20044;-64
2022/08/05 05:25:11;;;;;;;2.75;2.55;;;25.80;50.60;;;;;;5044073;28;20049;-64
2022/08/05 05:27:43;;;;;;;2.72;2.53;;;25.50;50.30;;;;;;5031013;28;20053;-63
2022/08/05 05:30:15;;;;;;;2.78;2.58;;;25.10;49.70;;;;;;5034438;28;20075;-64
2022/08/05 05:32:58;;;;;;;2.90;2.70;;;24.80;49.50;;;;;;5042852;28;20465;-64
2022/08/05 05:35:41;;;;;;;3.03;2.83;;;24.40;49.50;;;;;;5048663;28;20050;-63
2022/08/05 05:38:09;;;;;;;3.38;3.08;;;23.90;49.20;;;;;;5049668;28;20425;-62
2022/08/05 05:40:39;;;;;;;;;;;23.60;49.30;;;;;;5042974;28;20323;-64
2022/08/05 05:43:15;;;;;;;4.13;3.10;;;23.30;49.20;;;;;;5060114;28;19929;-63
2022/08/05 05:45:54;;;;;;;4.18;3.75;;;22.90;49.60;;;;;;5043227;28;20057;-62
2022/08/05 05:48:23;;;;;;;4.05;3.60;;;22.60;49.60;;;;;;5040353;28;20595;-62
2022/08/05 05:50:54;;;;;;;3.65;3.35;;;22.30;50.50;;;;;;5042134;28;20055;-62
2022/08/05 05:53:21;;;;;;;3.75;3.33;;;22.10;51.10;;;;;;5040414;28;20440;-63
2022/08/05 05:55:49;;;;;;;4.20;3.30;;;21.90;51.30;;;;;;5044422;28;20474;-63
2022/08/05 05:58:27;;;;;;;8.43;3.78;;;21.70;51.60;;;;;;5041087;28;20128;-63
2022/08/05 06:00:59;;;;;;;4.05;3.40;;;21.60;51.80;;;;;;5041930;28;20048;-63
2022/08/05 06:03:40;;;;;;;6.93;4.18;;;21.50;52.20;;;;;;5038377;28;20045;-63
2022/08/05 06:06:27;;;;;;;4.32;3.92;;;21.30;52.90;;;;;;5043529;28;20120;-64
2022/08/05 06:08:57;;;;;;;4.55;4.07;;;21.20;53.80;;;;;;5049918;28;20532;-63
2022/08/05 06:11:25;;;;;;;7.55;4.10;;;21.10;54.10;;;;;;5044442;28;20045;-63
2022/08/05 06:13:55;;;;;;;6.85;4.53;;;21.10;54.90;;;;;;5043892;28;20052;-63
2022/08/05 06:16:23;;;;;;;5.07;4.22;;;21.10;55.20;;;;;;5047116;28;20053;-63
2022/08/05 06:18:58;;;;;;;7.35;4.13;;;21.10;55.20;;;;;;5045599;28;20045;-63
2022/08/05 06:21:31;;;;;;;7.15;4.13;;;21.10;54.80;;;;;;5035929;28;20102;-63
2022/08/05 06:24:05;;;;;;;5.80;3.90;;;21.10;55.50;;;;;;5042938;28;20037;-63
2022/08/05 06:26:41;;;;;;;4.60;4.10;;;21.10;55.00;;;;;;5039407;28;20135;-64
2022/08/05 06:29:22;;;;;;;4.78;4.28;;;21.10;54.80;;;;;;5039086;28;20044;-63
2022/08/05 06:32:10;;;;;;;4.15;3.75;;;21.10;54.80;;;;;;5035763;28;20072;-63
2022/08/05 06:34:56;;;;;;;5.82;4.38;;;21.00;54.90;;;;;;5039870;28;20050;-63
2022/08/05 06:37:27;;;;;;;6.13;4.43;;;21.00;54.90;;;;;;5040844;28;20067;-63
2022/08/05 06:40:15;;;;;;;6.18;4.68;;;21.00;55.00;;;;;;5042895;28;20559;-63
2022/08/05 06:42:47;;;;;;;6.43;4.80;;;20.90;55.30;;;;;;5043770;28;20734;-63
2022/08/05 06:45:19;;;;;;;4.85;4.00;;;20.90;55.40;;;;;;5047271;28;20446;-63
2022/08/05 06:48:06;;;;;;;4.25;3.95;;;20.90;55.70;;;;;;5040484;28;20073;-63
2022/08/05 06:50:53;;;;;;;5.32;4.53;;;20.90;55.90;;;;;;5033358;28;20479;-62
2022/08/05 06:53:21;;;;;;;4.60;4.20;;;20.90;56.50;;;;;;5031656;28;20049;-64
2022/08/05 06:55:56;;;;;;;5.28;4.32;;;20.80;56.60;;;;;;5035678;28;20438;-63
2022/08/05 06:58:25;;;;;;;5.82;4.53;;;20.90;57.20;;;;;;5034438;28;20084;-61
2022/08/05 07:01:04;;;;;;;4.80;4.22;;;20.90;57.50;;;;;;5044954;28;20125;-63
2022/08/05 07:03:33;;;;;;;4.97;4.20;;;20.90;57.60;;;;;;5038022;28;20045;-62
2022/08/05 07:06:03;;;;;;;4.97;4.10;;;20.90;57.50;;;;;;5038199;28;20053;-62
2022/08/05 07:08:42;;;;;;;6.32;4.43;;;20.90;58.00;;;;;;5045969;28;20602;-61
2022/08/05 07:11:17;;;;;;;5.03;4.53;;;20.90;58.00;;;;;;5041609;28;20042;-62
2022/08/05 07:16:50;;;;;;;7.97;4.30;;;21.00;58.50;;;;;;5037670;28;20084;-62
2022/08/05 07:19:39;;;;;;;6.13;4.63;;;21.00;58.70;;;;;;5039743;28;20056;-61
2022/08/05 07:22:26;;;;;;;4.72;4.22;;;21.10;59.00;;;;;;5027567;28;20053;-62
2022/08/05 07:24:59;;;;;;;7.82;4.40;;;21.20;58.90;;;;;;5043115;28;20136;-61
2022/08/05 07:27:47;;;;;;;5.40;4.40;;;21.20;59.20;;;;;;5034273;28;20076;-63
2022/08/05 07:30:27;;;;;;;5.03;4.53;;;21.20;59.80;;;;;;5038517;28;20379;-66
2022/08/05 07:32:59;;;;;;;4.30;3.90;;;21.30;59.40;;;;;;5033063;28;20037;-62
2022/08/05 07:35:27;;;;;;;5.85;4.63;;;21.30;59.40;;;;;;5035944;28;20048;-62
2022/08/05 07:38:16;;;;;;;5.22;4.30;;;21.40;59.40;;;;;;5033456;28;20103;-60
2022/08/05 07:41:07;;;;;;;4.47;4.07;;;21.50;59.20;;;;;;5041256;28;20099;-61
2022/08/05 07:43:56;;;;;;;5.53;4.47;;;21.60;59.00;;;;;;5032033;28;20314;-61
2022/08/05 07:46:27;;;;;;;4.20;3.80;;;21.60;59.20;;;;;;5043199;28;20049;-60
2022/08/05 07:48:56;;;;;;;5.88;3.85;;;21.70;58.80;;;;;;5038123;28;20525;-62
2022/08/05 07:51:33;;;;;;;4.50;4.10;;;21.70;58.70;;;;;;5033661;28;20228;-61
2022/08/05 07:54:07;;;;;;;6.00;3.70;;;21.80;58.70;;;;;;5039883;28;20084;-61
2022/08/05 07:56:37;;;;;;;6.85;4.82;;;21.70;58.40;;;;;;5038474;28;20064;-62
2022/08/05 07:59:24;;;;;;;5.50;4.40;;;21.80;58.30;;;;;;5028704;28;20512;-62
2022/08/05 08:02:08;;;;;;;7.68;4.28;;;21.80;58.70;;;;;;5032443;28;20047;-62
2022/08/05 08:04:44;;;;;;;5.38;4.13;;;21.80;58.80;;;;;;5037541;28;20174;-62
2022/08/05 08:07:13;;;;;;;6.72;4.90;;;21.90;58.90;;;;;;5026287;28;20106;-62
2022/08/05 08:09:42;;;;;;;8.07;4.68;;;21.90;58.70;;;;;;5037882;28;20045;-62
2022/08/05 08:12:12;;;;;;;5.60;3.95;;;21.80;58.50;;;;;;5036840;28;20068;-62
2022/08/05 08:15:00;;;;;;;6.90;3.50;;;21.90;58.40;;;;;;5036834;28;20048;-63
2022/08/05 08:17:31;;;;;;;4.85;3.78;;;21.90;58.40;;;;;;5040724;28;20540;-62
2022/08/05 08:20:03;;;;;;;5.13;3.67;;;21.90;58.20;;;;;;5040651;28;20052;-62
2022/08/05 08:22:53;;;;;;;3.90;3.60;;;22.00;58.20;;;;;;5045001;28;20123;-61
2022/08/05 08:25:22;;;;;;;5.43;3.88;;;22.00;58.00;;;;;;5036904;28;20561;-61
2022/08/05 08:27:54;;;;;;;4.18;3.83;;;22.00;58.00;;;;;;5044501;28;20493;-61
2022/08/05 08:30:22;;;;;;;5.32;3.55;;;22.00;57.80;;;;;;5037224;28;20722;-62
2022/08/05 08:33:11;;;;;;;5.40;3.22;;;21.90;57.80;;;;;;5033066;28;20052;-61
2022/08/05 08:35:40;;;;;;;4.50;3.80;;;22.00;57.70;;;;;;5036138;28;20191;-61
2022/08/05 08:38:27;;;;;;;4.30;3.35;;;22.00;57.60;;;;;;5035397;28;20073;-61
2022/08/05 08:41:07;;;;;;;4.25;3.30;;;21.90;57.40;;;;;;5027342;28;20049;-61
2022/08/05 08:43:36;;;;;;;7.43;3.88;;;21.90;57.50;;;;;;5036681;28;20055;-64
2022/08/05 08:46:28;;;;;;;4.90;3.92;;;21.80;57.40;;;;;;5038955;28;20044;-62
2022/08/05 08:48:56;;;;;;;6.32;3.58;;;21.90;57.40;;;;;;5038774;28;20497;-61
2022/08/05 08:51:48;;;;;;;5.28;3.30;;;21.80;57.20;;;;;;5042734;28;20088;-62
2022/08/05 08:54:33;;;;;;;3.03;2.80;;;21.70;57.20;;;;;;5039215;28;20140;-60
2022/08/05 08:57:04;;;;;;;;;;;21.70;57.40;;;;;;5044259;28;20053;-60
2022/08/05 08:59:38;;;;;;;5.20;3.45;;;21.70;57.50;;;;;;5040291;28;19952;-60
2022/08/05 09:02:13;;;;;;;6.65;3.10;;;21.60;57.50;;;;;;5039642;28;20131;-60
2022/08/05 09:04:44;;;;;;;3.58;3.08;;;21.60;57.70;;;;;;5040476;28;20048;-61
2022/08/05 09:07:28;;;;;;;7.20;2.80;;;21.60;57.60;;;;;;5037557;28;20388;-62
2022/08/05 09:10:06;;;;;;;3.88;3.15;;;21.60;57.70;;;;;;5038961;28;20084;-61
2022/08/05 09:12:37;;;;;;;3.05;2.75;;;21.60;57.70;;;;;;5049950;28;20041;-61
2022/08/05 09:15:05;;;;;;;3.28;2.97;;;21.60;57.70;;;;;;5039976;28;20053;-61
2022/08/05 09:17:33;;;;;;;3.10;2.90;;;21.60;57.60;;;;;;5041967;28;20056;-60
2022/08/05 09:20:10;;;;;;;3.03;2.75;;;21.60;57.50;;;;;;5044071;28;20072;-60
2022/08/05 09:23:10;;;;;;;3.00;2.80;;;21.60;57.60;;;;;;5039055;28;20418;-60
2022/08/05 09:25:51;;;;;;;4.35;2.85;;;21.60;57.40;;;;;;5042776;28;20057;-61
2022/08/05 09:28:31;;;;;;;4.40;3.10;;;21.60;57.30;;;;;;5042421;28;20053;-61
2022/08/05 09:31:03;;;;;;;;;;;21.60;57.30;;;;;;5038520;28;20148;-62
2022/08/05 09:33:54;;;;;;;3.33;3.03;;;21.60;57.30;;;;;;5042275;28;20023;-62
2022/08/05 09:36:22;;;;;;;3.25;2.63;;;21.60;57.40;;;;;;5051232;28;20076;-61
2022/08/05 09:39:02;;;;;;;2.80;2.40;;;21.60;57.30;;;;;;5042066;28;20061;-61
2022/08/05 09:41:59;;;;;;;5.25;2.58;;;21.60;57.40;;;;;;5042714;28;20050;-62
2022/08/05 09:44:40;;;;;;;3.30;2.97;;;21.60;57.20;;;;;;5037937;28;20444;-61
2022/08/05 09:47:14;;;;;;;2.70;2.50;;;21.60;57.50;;;;;;5037199;28;20053;-60
2022/08/05 09:49:50;;;;;;;5.15;2.80;;;21.60;57.50;;;;;;5041962;28;20052;-63
2022/08/05 09:52:31;;;;;;;2.80;2.60;;;21.60;57.40;;;;;;5034955;28;20052;-62
2022/08/05 09:55:02;;;;;;;2.88;2.58;;;21.60;57.70;;;;;;5044612;28;20565;-63
2022/08/05 09:57:49;;;;;;;3.80;2.70;;;21.60;57.70;;;;;;5041013;28;20502;-62
2022/08/05 10:00:24;;;;;;;7.32;2.92;;;21.60;57.60;;;;;;5041397;28;20037;-62
2022/08/05 10:02:53;;;;;;;2.80;2.60;;;21.70;57.50;;;;;;5033409;28;20056;-62
2022/08/05 10:05:26;;;;;;;3.28;2.97;;;21.70;57.50;;;;;;5038323;28;20091;-62
2022/08/05 10:07:59;;;;;;;3.15;2.88;;;21.70;57.20;;;;;;5040361;28;20449;-63
2022/08/05 10:10:49;;;;;;;4.85;2.33;;;21.70;57.00;;;;;;5037934;28;20052;-62
2022/08/05 10:13:35;;;;;;;4.60;2.28;;;21.70;56.80;;;;;;5042060;28;20052;-62
2022/08/05 10:16:35;;;;;;;2.78;2.58;;;21.70;56.60;;;;;;5031307;28;20048;-62
2022/08/05 10:19:19;;;;;;;4.15;2.70;;;21.70;56.60;;;;;;5040935;28;20119;-62
2022/08/05 10:22:09;;;;;;;3.00;2.80;;;21.70;56.50;;;;;;5043469;28;20076;-62
2022/08/05 10:24:57;;;;;;;2.97;2.70;;;21.70;56.50;;;;;;5041966;28;20498;-62
2022/08/05 10:27:26;;;;;;;2.72;2.53;;;21.70;56.40;;;;;;5041705;28;20052;-62
2022/08/05 10:30:13;;;;;;;7.03;2.67;;;21.70;56.30;;;;;;5036738;28;20072;-62
2022/08/05 10:33:02;;;;;;;2.70;2.50;;;21.70;56.30;;;;;;5036802;28;20061;-62
2022/08/05 10:35:31;;;;;;;2.75;2.55;;;21.70;56.30;;;;;;5041509;28;20045;-62
2022/08/05 10:38:00;;;;;;;2.65;2.45;;;21.70;56.40;;;;;;5038552;28;20513;-62
2022/08/05 10:40:42;;;;;;;2.80;2.45;;;21.70;56.30;;;;;;5040915;28;20179;-62
2022/08/05 10:43:49;;;;;;;3.25;2.50;;;21.70;56.60;;;;;;5030621;28;20057;-62
2022/08/05 10:46:18;;;;;;;3.15;2.95;;;21.70;56.60;;;;;;5024649;28;20102;-62
2022/08/05 10:48:56;;;;;;;2.47;2.28;;;21.80;56.80;;;;;;5030168;28;20155;-62
2022/08/05 10:51:42;;;;;;;2.97;2.63;;;21.70;56.70;;;;;;5036820;28;20056;-62
2022/08/05 10:54:46;;;;;;;4.38;3.05;;;21.80;56.70;;;;;;5039325;28;20037;-62
2022/08/05 10:57:27;;;;;;;3.80;3.17;;;21.80;56.90;;;;;;5033652;28;20135;-62
2022/08/05 11:00:20;;;;;;;2.42;2.17;;;21.80;56.90;;;;;;5031686;28;20103;-62
2022/08/05 11:03:09;;;;;;;2.58;2.38;;;21.90;56.80;;;;;;5034828;28;20045;-60
2022/08/05 11:06:08;;;;;;;2.92;2.65;;;21.90;57.40;;;;;;5041711;28;20068;-61
2022/08/05 11:09:19;;;;;;;2.50;2.30;;;21.90;57.70;;;;;;5043612;28;20048;-61
2022/08/05 11:12:45;;;;;;;4.10;2.85;;;21.90;57.70;;;;;;5041760;28;20501;-61
2022/08/05 11:15:44;;;;;;;4.95;2.22;;;21.80;57.80;;;;;;5038934;28;20474;-61
2022/08/05 11:18:31;;;;;;;2.20;2.08;;;21.90;57.60;;;;;;5035162;28;20052;-61
2022/08/05 11:21:04;;;;;;;2.75;2.45;;;21.90;57.30;;;;;;5041124;28;20044;-62
2022/08/05 11:23:51;;;;;;;3.45;2.40;;;21.90;57.50;;;;;;5033440;28;20041;-62
2022/08/05 11:26:39;;;;;;;2.60;2.40;;;22.00;56.70;;;;;;5048793;28;20110;-60
2022/08/05 11:29:29;;;;;;;;;;;22.00;56.60;;;;;;5034857;28;21831;-61
2022/08/05 11:32:25;;;;;;;2.78;2.40;;;22.00;56.40;;;;;;5041232;28;19939;-62
2022/08/05 11:34:52;;;;;;;2.60;2.40;;;21.90;56.60;;;;;;5036037;28;20041;-62
2022/08/05 11:37:42;;;;;;;2.55;2.35;;;21.90;57.20;;;;;;5032637;28;20052;-62
2022/08/05 11:40:58;;;;;;;2.72;2.50;;;21.90;56.60;;;;;;5037391;28;20160;-61
2022/08/05 11:44:09;;;;;;;2.50;2.30;;;21.80;56.80;;;;;;5041457;28;20124;-61
2022/08/05 11:46:40;;;;;;;3.13;2.20;;;21.90;56.60;;;;;;5036721;28;20135;-62
2022/08/05 11:49:27;;;;;;;;;;;21.80;56.20;;;;;;5035363;28;20383;-62
2022/08/05 11:52:00;;;;;;;2.05;1.80;;;21.80;56.40;;;;;;5037857;28;19987;-62
2022/08/05 11:54:38;;;;;;;2.38;2.17;;;21.80;56.50;;;;;;5037536;28;20051;-62
2022/08/05 11:57:07;;;;;;;5.28;2.38;;;21.70;56.40;;;;;;5040248;28;20056;-62
2022/08/05 11:59:52;;;;;;;2.58;2.30;;;21.70;56.40;;;;;;5034237;28;20302;-62
2022/08/05 12:02:25;;;;;;;3.92;2.35;;;21.70;56.30;;;;;;5034657;28;20488;-62
2022/08/05 12:05:02;;;;;;;2.25;2.15;;;21.70;56.10;;;;;;5033192;28;20057;-63
2022/08/05 12:07:47;;;;;;;3.40;2.70;;;21.70;56.20;;;;;;5032028;28;20446;-62
2022/08/05 12:10:36;;;;;;;3.42;2.00;;;21.70;56.00;;;;;;5036407;28;20094;-62
2022/08/05 12:13:15;;;;;;;3.10;2.55;;;21.60;56.00;;;;;;5041459;28;20049;-63
2022/08/05 12:16:07;;;;;;;2.65;2.45;;;21.60;56.00;;;;;;5036306;28;20497;-62
2022/08/05 12:18:42;;;;;;;2.42;2.22;;;21.60;55.70;;;;;;5058395;28;20421;-62
2022/08/05 12:21:25;;;;;;;2.17;2.00;;;21.70;55.80;;;;;;5036650;28;20055;-62
2022/08/05 12:24:08;;;;;;;2.20;2.00;;;21.60;55.70;;;;;;5062163;28;20063;-63
2022/08/05 12:26:46;;;;;;;2.58;2.38;;;21.70;55.70;;;;;;5033384;28;20490;-62
2022/08/05 12:29:19;;;;;;;4.13;2.40;;;21.70;55.90;;;;;;5035726;28;20053;-63
2022/08/05 12:31:58;;;;;;;2.42;2.22;;;21.60;55.80;;;;;;5038012;28;20048;-62
2022/08/05 12:34:31;;;;;;;2.42;2.33;;;21.60;55.90;;;;;;5043291;28;20122;-63
2022/08/05 12:37:09;;;;;;;3.22;2.72;;;21.60;56.10;;;;;;5041516;28;20049;-62
2022/08/05 12:39:38;;;;;;;3.20;2.75;;;21.60;56.10;;;;;;5036555;28;20045;-62
2022/08/05 12:42:16;;;;;;;2.72;2.30;;;21.60;56.10;;;;;;5042030;28;20091;-62
2022/08/05 12:44:43;;;;;;;2.58;2.38;;;21.70;56.00;;;;;;5047540;28;20074;-62
2022/08/05 12:47:13;;;;;;;3.78;2.25;;;21.60;56.10;;;;;;5052381;28;20048;-62
2022/08/05 12:49:48;;;;;;;3.17;2.40;;;21.60;56.00;;;;;;5038412;28;20551;-62
2022/08/05 12:52:34;;;;;;;2.10;2.00;;;21.60;56.00;;;;;;5044648;28;20677;-63
2022/08/05 12:55:25;;;;;;;2.50;2.30;;;21.60;56.10;;;;;;5041925;28;20063;-62
2022/08/05 12:57:55;;;;;;;2.13;2.03;;;21.60;55.90;;;;;;5049073;28;20132;-62
2022/08/05 13:00:45;;;;;;;3.38;2.28;;;21.70;56.30;;;;;;5058602;28;20041;-61
2022/08/05 13:03:39;;;;;;;2.80;2.60;;;21.60;56.30;;;;;;5038383;28;20045;-61
2022/08/05 13:06:16;;;;;;;3.33;2.42;;;21.60;56.20;;;;;;5041187;28;20041;-62
2022/08/05 13:08:46;;;;;;;2.97;2.67;;;21.60;56.30;;;;;;5033727;28;20045;-63
2022/08/05 13:11:20;;;;;;;3.58;2.00;;;21.60;56.20;;;;;;5028311;28;20045;-63
2022/08/05 13:14:22;;;;;;;2.70;2.45;;;21.70;56.30;;;;;;5039314;28;20688;-62
2022/08/05 13:16:54;;;;;;;3.60;2.33;;;21.60;56.30;;;;;;5057525;28;20056;-62
2022/08/05 13:19:27;;;;;;;3.97;2.53;;;21.60;56.50;;;;;;5059606;28;20517;-62
2022/08/05 13:22:14;;;;;;;3.78;2.58;;;21.60;56.50;;;;;;5044755;28;20049;-61
2022/08/05 13:24:56;;;;;;;4.32;2.47;;;21.60;56.50;;;;;;5040260;28;20041;-62
2022/08/05 13:27:35;;;;;;;1.95;1.85;;;21.60;56.40;;;;;;5044744;28;20057;-62
2022/08/05 13:30:08;;;;;;;4.07;2.60;;;21.70;56.40;;;;;;5043162;28;20059;-62
2022/08/05 13:32:55;;;;;;;;;;;21.70;56.50;;;;;;5044002;28;20053;-62
2022/08/05 13:35:22;;;;;;;4.03;2.58;;;21.60;56.30;;;;;;5044325;28;19921;-62
2022/08/05 13:38:09;;;;;;;2.85;2.53;;;21.60;56.40;;;;;;5043426;28;20048;-62
2022/08/05 13:40:56;;;;;;;2.47;2.10;;;21.70;56.50;;;;;;5044011;28;20315;-62
2022/08/05 13:43:23;;;;;;;2.70;2.50;;;21.60;56.40;;;;;;5042392;28;20504;-62
2022/08/05 13:46:11;;;;;;;4.82;2.90;;;21.60;56.40;;;;;;5044654;28;20073;-62
2022/08/05 13:48:38;;;;;;;3.85;2.42;;;21.60;56.30;;;;;;5044917;28;20467;-61